Time;durP1;ratioP1;P1;durP2;ratioP2;P2;SDS_P1;SDS_P2;PMS_P1;PMS_P2;Temp;Humidity;BMP_temperature;BMP_pressure;BME280_temperature;BME280_humidity;BME280_pressure;Samples;Min_cycle;Max_cycle;Signal;HPM_P1;HPM_P2
2023/09/13 00:00:10;;;;;;;12.18;8.60;;;;;;;30.72;70.99;95942.81;6126754;23;20016;-79
2023/09/13 00:02:40;;;;;;;12.18;8.43;;;;;;;31.04;68.74;95951.31;6126216;23;20006;-80
2023/09/13 00:05:06;;;;;;;11.23;7.63;;;;;;;31.37;66.00;95952.94;6126231;23;20013;-80
2023/09/13 00:07:32;;;;;;;10.13;8.52;;;;;;;31.20;68.22;95963.53;6101582;23;20009;-79
2023/09/13 00:09:59;;;;;;;11.95;8.23;;;;;;;31.13;68.46;95958.47;6102061;23;20004;-80
2023/09/13 00:12:25;;;;;;;10.25;8.02;;;;;;;30.65;72.55;95963.25;6125801;23;20009;-80
2023/09/13 00:14:51;;;;;;;10.48;7.53;;;;;;;30.53;74.59;95972.66;6126295;23;20105;-80
2023/09/13 00:17:17;;;;;;;12.48;7.32;;;;;;;30.53;73.63;95977.28;6125330;23;20084;-80
2023/09/13 00:19:43;;;;;;;9.48;7.22;;;;;;;30.79;71.23;95974.25;6101943;23;20013;-80
2023/09/13 00:22:09;;;;;;;8.52;7.13;;;;;;;31.07;71.12;95975.97;6126078;23;20018;-81
2023/09/13 00:24:35;;;;;;;9.43;7.47;;;;;;;31.05;69.61;95972.72;6125860;23;20006;-81
2023/09/13 00:27:00;;;;;;;10.45;6.97;;;;;;;30.94;69.95;95979.44;6124977;23;20015;-80
2023/09/13 00:29:30;;;;;;;10.02;6.97;;;;;;;31.31;67.64;95973.13;6125582;23;20006;-80
2023/09/13 00:31:55;;;;;;;12.45;6.90;;;;;;;31.06;68.58;95976.28;6125676;23;20109;-80
2023/09/13 00:34:22;;;;;;;10.40;6.20;;;;;;;30.74;73.15;95975.09;6126088;23;20085;-80
2023/09/13 00:36:48;;;;;;;9.15;6.28;;;;;;;30.70;70.74;95977.59;6125590;23;20005;-80
2023/09/13 00:39:14;;;;;;;9.43;5.93;;;;;;;30.82;70.92;95979.91;6126284;23;20064;-81
2023/09/13 00:41:40;;;;;;;10.40;5.88;;;;;;;30.85;71.48;95973.88;6125402;23;20002;-80
2023/09/13 00:44:05;;;;;;;10.38;6.50;;;;;;;29.92;76.29;95992.41;6125490;23;20013;-80
2023/09/13 00:46:33;;;;;;;11.30;6.38;;;;;;;30.21;74.27;95970.66;6125831;23;20012;-80
2023/09/13 00:49:00;;;;;;;10.20;6.13;;;;;;;30.01;75.60;95971.69;6101070;23;20009;-80
2023/09/13 00:51:26;;;;;;;9.40;5.85;;;;;;;30.20;76.25;95963.63;6125526;23;20006;-81
2023/09/13 00:53:53;;;;;;;8.13;5.65;;;;;;;30.19;74.42;95962.00;6126209;23;19998;-80
2023/09/13 00:56:19;;;;;;;9.25;6.20;;;;;;;30.00;79.21;95961.13;6100701;23;20063;-80
2023/09/13 00:58:47;;;;;;;9.60;5.82;;;;;;;30.37;76.46;95970.44;6123667;23;20010;-80
2023/09/13 01:01:13;;;;;;;13.05;7.18;;;;;;;30.79;72.04;95958.75;6100245;23;20068;-81
2023/09/13 01:03:40;;;;;;;12.98;6.50;;;;;;;30.61;74.80;95962.25;6100850;23;20005;-80
2023/09/13 01:06:09;;;;;;;10.77;6.60;;;;;;;30.17;76.75;95968.78;6150118;23;20033;-80
2023/09/13 01:08:39;;;;;;;8.52;6.75;;;;;;;30.48;72.56;95970.03;6101390;23;20084;-81
2023/09/13 01:11:06;;;;;;;13.73;7.78;;;;;;;30.60;74.92;95961.44;6101159;23;20005;-81
2023/09/13 01:13:31;;;;;;;8.68;6.07;;;;;;;30.72;73.84;95958.31;6101226;23;20430;-80
2023/09/13 01:16:09;;;;;;;9.38;7.30;;;;;;;30.75;81.40;95953.09;6124757;23;20009;-80
2023/09/13 01:18:45;;;;;;;10.48;7.15;;;;;;;30.46;88.72;95944.28;6125030;23;20009;-80
2023/09/13 01:21:22;;;;;;;12.20;7.63;;;;;;;31.78;80.53;95938.56;6101020;23;20023;-81
2023/09/13 01:23:54;;;;;;;10.88;7.97;;;;;;;31.12;81.96;95946.00;6101332;23;20017;-81
2023/09/13 01:26:47;;;;;;;11.60;7.75;;;;;;;30.97;85.34;95946.25;6100784;23;20060;-81
2023/09/13 01:29:15;;;;;;;11.95;7.88;;;;;;;30.37;88.78;95946.84;6100790;23;20076;-81
2023/09/13 01:31:41;;;;;;;12.18;7.68;;;;;;;30.56;88.71;95936.00;6125344;23;20005;-80
2023/09/13 01:34:07;;;;;;;11.07;8.25;;;;;;;30.20;91.70;95930.25;6101202;23;20589;-81
2023/09/13 01:36:37;;;;;;;11.95;8.90;;;;;;;30.72;85.17;95917.59;6124656;23;20017;-81
2023/09/13 01:39:04;;;;;;;12.35;8.82;;;;;;;30.25;90.27;95917.44;6125291;23;20009;-80
2023/09/13 01:41:54;;;;;;;10.65;9.05;;;;;;;29.25;98.65;95924.50;6101014;23;20009;-81
2023/09/13 01:44:20;;;;;;;13.05;9.23;;;;;;;29.47;99.26;95929.44;6100597;23;20016;-80
2023/09/13 01:46:47;;;;;;;12.13;9.63;;;;;;;29.48;99.04;95941.91;6100656;23;20010;-80
2023/09/13 01:49:14;;;;;;;12.43;9.52;;;;;;;30.21;94.89;95950.84;6099131;23;20013;-80
2023/09/13 01:51:41;;;;;;;12.40;8.70;;;;;;;29.82;99.11;95951.84;6099127;23;20009;-80
2023/09/13 01:54:06;;;;;;;10.52;9.43;;;;;;;30.28;92.39;95954.00;6124888;23;20009;-80
2023/09/13 01:56:32;;;;;;;11.02;9.00;;;;;;;30.73;88.98;95947.13;6124942;23;20005;-80
2023/09/13 01:58:57;;;;;;;12.05;9.07;;;;;;;30.86;87.04;95942.09;6100409;23;20013;-81
2023/09/13 02:01:23;;;;;;;12.18;9.45;;;;;;;31.01;87.50;95941.84;6126058;23;20009;-81
2023/09/13 02:03:49;;;;;;;12.23;9.73;;;;;;;30.66;89.59;95949.41;6127740;23;20448;-81
2023/09/13 02:06:14;;;;;;;13.25;9.77;;;;;;;30.30;92.26;95947.19;6127418;23;20501;-80
2023/09/13 02:08:41;;;;;;;12.85;9.45;;;;;;;30.52;90.60;95943.13;6103695;23;20461;-81
2023/09/13 02:11:07;;;;;;;13.05;9.70;;;;;;;30.45;86.33;95932.63;6103313;23;20055;-80
2023/09/13 02:13:33;;;;;;;11.10;9.52;;;;;;;30.60;89.44;95917.22;6128115;23;20077;-81
2023/09/13 02:15:59;;;;;;;12.18;9.35;;;;;;;30.13;90.53;95922.44;6103259;23;20088;-81
2023/09/13 02:18:25;;;;;;;12.25;9.18;;;;;;;30.07;92.65;95924.41;6128067;23;20024;-80
2023/09/13 02:20:50;;;;;;;11.98;9.30;;;;;;;29.39;99.71;95937.38;6127976;23;20001;-80
2023/09/13 02:23:16;;;;;;;14.68;10.27;;;;;;;29.37;100.00;95935.75;6103356;23;20009;-81
2023/09/13 02:25:45;;;;;;;12.50;8.90;;;;;;;29.97;97.01;95932.69;6103929;23;20017;-80
2023/09/13 02:28:12;;;;;;;12.55;9.77;;;;;;;29.87;96.00;95953.69;6103389;23;20064;-81
2023/09/13 02:30:38;;;;;;;11.73;10.35;;;;;;;28.96;100.00;95961.56;6127854;23;20012;-80
2023/09/13 02:33:04;;;;;;;14.40;10.07;;;;;;;29.40;100.00;95966.88;6152262;23;19997;-82
2023/09/13 02:35:31;;;;;;;11.98;10.02;;;;;;;30.10;96.49;95963.72;6104141;23;20016;-81
2023/09/13 02:37:57;;;;;;;13.63;9.95;;;;;;;29.88;97.15;95960.72;6103107;23;20148;-80
2023/09/13 02:40:23;;;;;;;13.25;9.45;;;;;;;29.75;96.11;95951.41;6128011;23;20006;-80
2023/09/13 02:42:49;;;;;;;13.52;9.18;;;;;;;29.74;98.93;95961.41;6102889;23;20311;-80
2023/09/13 02:45:15;;;;;;;10.13;8.55;;;;;;;29.46;98.64;95970.38;6127915;23;20009;-80
2023/09/13 02:47:41;;;;;;;12.68;9.10;;;;;;;29.42;100.00;95974.75;6126998;23;20005;-80
2023/09/13 02:50:07;;;;;;;12.55;8.85;;;;;;;29.24;100.00;95974.38;6103309;23;20016;-80
2023/09/13 02:52:33;;;;;;;13.30;9.13;;;;;;;29.19;100.00;95971.69;6127851;23;20002;-80
2023/09/13 02:55:06;;;;;;;13.77;8.50;;;;;;;29.74;98.30;95974.16;6099015;23;20032;-80
2023/09/13 02:57:32;;;;;;;11.18;8.63;;;;;;;29.33;100.00;95979.97;6127198;23;20053;-80
2023/09/13 02:59:58;;;;;;;11.30;9.20;;;;;;;29.36;98.48;95988.31;6100677;23;20013;-81
2023/09/13 03:02:24;;;;;;;10.82;8.23;;;;;;;29.67;98.88;95988.03;6102964;23;20386;-80
2023/09/13 03:04:51;;;;;;;13.13;9.05;;;;;;;29.31;100.00;95985.69;6103034;23;20002;-81
2023/09/13 03:07:18;;;;;;;11.85;9.95;;;;;;;28.64;100.00;95979.13;6126609;23;20657;-81
2023/09/13 03:09:46;;;;;;;11.40;8.60;;;;;;;29.40;100.00;95980.44;6101075;23;20354;-80
2023/09/13 03:12:13;;;;;;;16.77;9.90;;;;;;;29.08;100.00;95978.28;6126178;23;20013;-80
2023/09/13 03:14:38;;;;;;;12.65;9.40;;;;;;;29.05;100.00;95976.94;6102075;23;20001;-80
2023/09/13 03:17:04;;;;;;;12.35;9.48;;;;;;;29.68;100.00;95981.56;6101095;23;20060;-80
2023/09/13 03:19:33;;;;;;;11.50;9.10;;;;;;;29.27;100.00;95976.47;6125487;23;20008;-80
2023/09/13 03:21:59;;;;;;;12.85;8.48;;;;;;;28.99;100.00;95982.66;6101642;23;20409;-80
2023/09/13 03:24:25;;;;;;;13.15;9.35;;;;;;;28.71;100.00;95989.63;6102222;23;20002;-80
2023/09/13 03:26:50;;;;;;;12.88;9.13;;;;;;;28.93;100.00;95984.59;6101187;23;20027;-80
2023/09/13 03:29:16;;;;;;;10.82;8.77;;;;;;;28.66;100.00;95985.03;6101525;23;20469;-80
2023/09/13 03:31:42;;;;;;;12.40;8.40;;;;;;;28.94;100.00;95994.34;6100204;23;20434;-81
2023/09/13 03:34:11;;;;;;;12.77;9.07;;;;;;;28.88;100.00;95988.16;6102535;23;20346;-80
2023/09/13 03:36:37;;;;;;;12.00;8.57;;;;;;;29.85;98.94;95994.66;6100819;23;20009;-81
2023/09/13 03:39:03;;;;;;;10.43;7.70;;;;;;;29.99;94.95;96005.63;6125880;23;20009;-80
2023/09/13 03:41:31;;;;;;;10.02;8.13;;;;;;;29.73;95.92;95999.66;6101330;23;20013;-80
2023/09/13 03:43:57;;;;;;;12.30;8.77;;;;;;;29.76;96.24;95997.19;6124987;23;20013;-80
2023/09/13 03:46:23;;;;;;;11.85;7.95;;;;;;;29.75;96.27;95998.28;6125024;23;20006;-80
2023/09/13 03:48:54;;;;;;;11.68;7.60;;;;;;;29.66;95.66;95994.56;6101861;23;20370;-80
2023/09/13 03:51:19;;;;;;;18.92;8.10;;;;;;;29.87;95.38;96000.56;6101418;23;20006;-80
2023/09/13 03:53:46;;;;;;;10.80;7.82;;;;;;;29.61;100.00;96002.75;6102239;23;20210;-80
2023/09/13 03:56:12;;;;;;;8.90;6.88;;;;;;;29.53;98.92;96009.56;6099704;23;20017;-80
2023/09/13 03:58:39;;;;;;;10.85;7.72;;;;;;;29.50;100.00;96002.00;6125472;23;20005;-80
2023/09/13 04:01:06;;;;;;;10.65;7.03;;;;;;;29.18;100.00;95997.16;6125441;23;20016;-80
2023/09/13 04:03:32;;;;;;;9.23;7.55;;;;;;;29.57;100.00;96007.09;6125934;23;20005;-80
2023/09/13 04:06:00;;;;;;;9.48;7.13;;;;;;;29.40;99.36;96004.81;6100875;23;20006;-80
2023/09/13 04:08:28;;;;;;;10.80;7.60;;;;;;;29.96;94.85;96015.13;6125372;23;20021;-81
2023/09/13 04:10:54;;;;;;;10.57;7.40;;;;;;;29.59;97.29;96018.47;6124076;23;20092;-80
2023/09/13 04:13:20;;;;;;;8.43;6.95;;;;;;;30.11;93.80;96024.97;6123465;23;20038;-80
2023/09/13 04:15:45;;;;;;;12.40;7.82;;;;;;;29.79;96.62;96025.63;6124284;23;20005;-80
2023/09/13 04:18:12;;;;;;;9.68;7.05;;;;;;;30.39;91.07;96027.97;6099298;23;20009;-81
2023/09/13 04:20:38;;;;;;;11.15;7.60;;;;;;;29.76;96.43;96035.13;6149366;23;20017;-80
2023/09/13 04:23:04;;;;;;;12.90;7.78;;;;;;;30.09;93.68;96039.94;6098470;23;20338;-80
2023/09/13 04:25:30;;;;;;;9.68;6.63;;;;;;;29.98;95.84;96034.63;6123821;23;20342;-80
2023/09/13 04:27:57;;;;;;;10.50;7.15;;;;;;;30.24;89.24;96024.31;6099918;23;20005;-80
2023/09/13 04:30:23;;;;;;;9.27;7.13;;;;;;;30.38;91.06;96027.13;6125405;23;20013;-81
2023/09/13 04:32:49;;;;;;;9.13;7.43;;;;;;;30.28;91.02;96029.97;6124458;23;20140;-80
2023/09/13 04:35:15;;;;;;;9.52;6.85;;;;;;;29.76;93.90;96028.91;6100560;23;20013;-81
2023/09/13 04:37:46;;;;;;;9.20;6.60;;;;;;;30.10;93.38;96039.66;6124763;23;20006;-81
2023/09/13 04:40:12;;;;;;;10.63;7.13;;;;;;;30.61;88.93;96038.25;6126183;23;20551;-81
2023/09/13 04:42:45;;;;;;;9.00;7.15;;;;;;;30.07;90.69;96041.03;6125006;23;20662;-81
2023/09/13 04:45:15;;;;;;;11.25;7.57;;;;;;;30.22;94.01;96034.66;6100358;23;20012;-82
2023/09/13 04:47:41;;;;;;;9.07;7.00;;;;;;;29.89;96.23;96038.25;6124050;23;20494;-82
2023/09/13 04:50:13;;;;;;;10.52;6.63;;;;;;;29.59;95.83;96034.72;6100570;23;20005;-82
2023/09/13 04:52:39;;;;;;;11.07;7.15;;;;;;;29.47;98.49;96032.38;6125262;23;20041;-82
2023/09/13 04:55:05;;;;;;;9.45;6.60;;;;;;;30.33;92.47;96027.19;6099896;23;20055;-85
2023/09/13 04:57:31;;;;;;;10.27;6.65;;;;;;;30.36;88.78;96037.47;6124502;23;20013;-80
2023/09/13 04:59:57;;;;;;;8.70;6.53;;;;;;;30.08;91.35;96044.56;6124722;23;20012;-81
2023/09/13 05:02:22;;;;;;;12.95;7.50;;;;;;;30.58;88.44;96030.69;6149253;23;20001;-82
2023/09/13 05:04:48;;;;;;;9.35;7.15;;;;;;;30.34;90.72;96039.66;6101021;23;20006;-81
2023/09/13 05:07:14;;;;;;;11.85;6.47;;;;;;;30.42;91.26;96049.09;6122172;23;20390;-81
2023/09/13 05:09:40;;;;;;;14.38;7.30;;;;;;;30.29;91.19;96054.09;6100676;23;20009;-80
2023/09/13 05:12:06;;;;;;;11.82;7.28;;;;;;;29.96;91.35;96049.56;6124187;23;20350;-82
2023/09/13 05:14:33;;;;;;;8.63;6.38;;;;;;;29.52;96.46;96050.50;6125124;23;20005;-81
2023/09/13 05:16:59;;;;;;;9.23;6.15;;;;;;;29.44;97.49;96049.19;6108002;23;20005;-81
2023/09/13 05:19:25;;;;;;;8.50;6.05;;;;;;;28.65;100.00;96053.78;6125645;23;20338;-82
2023/09/13 05:21:51;;;;;;;9.48;6.03;;;;;;;29.43;99.62;96052.19;6124686;23;20001;-81
2023/09/13 05:24:17;;;;;;;13.25;6.13;;;;;;;30.18;91.82;96060.75;6124435;23;20035;-81
2023/09/13 05:26:43;;;;;;;8.20;5.93;;;;;;;30.00;92.99;96062.25;6124549;23;20009;-82
2023/09/13 05:29:08;;;;;;;9.27;6.85;;;;;;;30.07;90.44;96070.06;6124554;23;20590;-81
2023/09/13 05:31:40;;;;;;;10.57;6.70;;;;;;;29.70;93.14;96068.78;6123903;23;20450;-82
2023/09/13 05:34:06;;;;;;;8.48;6.40;;;;;;;30.25;89.88;96080.19;6124571;23;19993;-81
2023/09/13 05:36:31;;;;;;;10.40;6.55;;;;;;;29.98;90.20;96088.03;6125019;23;20049;-81
2023/09/13 05:38:57;;;;;;;8.15;5.90;;;;;;;29.69;93.33;96082.63;6125416;23;20596;-81
2023/09/13 05:41:23;;;;;;;9.55;6.32;;;;;;;29.86;91.93;96087.63;6099785;23;20012;-81
2023/09/13 05:43:48;;;;;;;8.77;5.95;;;;;;;29.75;92.93;96093.16;6124088;23;20001;-82
2023/09/13 05:46:15;;;;;;;9.38;6.30;;;;;;;30.40;87.79;96081.91;6122458;23;20615;-81
2023/09/13 05:48:41;;;;;;;7.07;5.63;;;;;;;31.03;80.07;96082.78;6122715;23;20006;-81
2023/09/13 05:51:06;;;;;;;9.25;6.18;;;;;;;30.56;92.06;96090.69;6124897;23;20012;-81
2023/09/13 05:53:32;;;;;;;12.30;7.07;;;;;;;30.20;87.31;96077.53;6100143;23;20001;-81
2023/09/13 05:55:57;;;;;;;8.20;6.22;;;;;;;30.28;89.55;96089.66;6124203;23;20064;-81
2023/09/13 05:58:23;;;;;;;10.15;6.95;;;;;;;31.23;83.59;96088.72;6122162;23;20377;-81
2023/09/13 06:00:50;;;;;;;8.45;6.32;;;;;;;30.56;83.48;96074.41;6148572;23;20737;-80
2023/09/13 06:03:19;;;;;;;8.32;5.47;;;;;;;30.75;79.98;96077.97;6123444;23;20009;-81
2023/09/13 06:05:50;;;;;;;11.35;6.70;;;;;;;31.49;78.76;96080.19;6149658;23;20072;-81
2023/09/13 06:08:17;;;;;;;7.15;4.93;;;;;;;31.32;78.16;96079.88;6124349;23;20005;-81
2023/09/13 06:10:42;;;;;;;8.23;5.30;;;;;;;30.64;81.32;96091.94;6099904;23;20482;-80
2023/09/13 06:13:08;;;;;;;7.85;5.43;;;;;;;31.33;76.89;96084.25;6124176;23;20032;-81
2023/09/13 06:15:33;;;;;;;6.88;4.50;;;;;;;32.14;70.67;96084.81;6124508;23;20001;-81
2023/09/13 06:17:59;;;;;;;7.28;4.55;;;;;;;32.11;70.84;96094.38;6123446;23;20318;-81
2023/09/13 06:20:24;;;;;;;7.82;5.13;;;;;;;31.05;79.32;96103.09;6124600;23;20346;-81
2023/09/13 06:22:54;;;;;;;8.55;4.78;;;;;;;30.43;83.86;96107.66;6124009;23;20013;-81
2023/09/13 06:25:20;;;;;;;8.70;5.22;;;;;;;29.91;89.79;96101.94;6124704;23;20012;-81
2023/09/13 06:27:46;;;;;;;8.45;4.57;;;;;;;30.29;88.81;96111.06;6097819;23;20010;-82
2023/09/13 06:30:15;;;;;;;8.55;4.93;;;;;;;30.45;84.69;96108.16;6099419;23;20016;-82
2023/09/13 06:32:41;;;;;;;6.47;4.57;;;;;;;30.59;85.72;96111.81;6123769;23;20022;-81
2023/09/13 06:35:11;;;;;;;6.82;4.32;;;;;;;31.86;72.10;96102.97;6125282;23;20005;-81
2023/09/13 06:37:36;;;;;;;6.47;4.25;;;;;;;31.22;76.63;96117.00;6101466;23;20010;-81
2023/09/13 06:40:03;;;;;;;6.10;3.78;;;;;;;30.70;83.04;96123.34;6102055;23;20009;-81
2023/09/13 06:42:29;;;;;;;6.97;4.90;;;;;;;30.62;84.73;96122.09;6125121;23;20001;-81
2023/09/13 06:44:55;;;;;;;5.72;4.18;;;;;;;30.83;82.29;96121.88;6101261;23;20073;-82
2023/09/13 06:47:32;;;;;;;6.88;4.60;;;;;;;31.56;75.80;96118.69;6100611;23;20009;-81
2023/09/13 06:49:58;;;;;;;8.10;4.90;;;;;;;31.56;75.43;96117.88;6152208;23;20005;-80
2023/09/13 06:52:24;;;;;;;6.20;4.32;;;;;;;31.92;77.85;96123.53;6126030;23;20513;-81
2023/09/13 06:54:49;;;;;;;5.85;4.10;;;;;;;31.95;71.70;96124.88;6126284;23;20504;-81
2023/09/13 06:57:16;;;;;;;8.30;4.07;;;;;;;32.33;71.15;96120.09;6151555;23;20005;-81
2023/09/13 06:59:41;;;;;;;6.13;3.88;;;;;;;32.51;70.31;96126.59;6101521;23;20005;-81
2023/09/13 07:02:08;;;;;;;6.32;3.90;;;;;;;32.13;70.13;96127.53;6125681;23;20141;-81
2023/09/13 07:04:34;;;;;;;5.25;3.53;;;;;;;31.80;73.48;96131.34;6126085;23;20008;-82
2023/09/13 07:06:59;;;;;;;6.78;4.20;;;;;;;31.51;73.47;96137.78;6125436;23;20009;-81
2023/09/13 07:09:25;;;;;;;5.78;3.88;;;;;;;30.91;78.11;96151.09;6126604;23;20006;-82
2023/09/13 07:11:50;;;;;;;6.72;3.95;;;;;;;30.47;81.70;96135.84;6150427;23;20569;-81
2023/09/13 07:14:17;;;;;;;6.60;3.67;;;;;;;30.94;81.34;96134.22;6101589;23;20010;-81
2023/09/13 07:16:42;;;;;;;6.00;4.18;;;;;;;31.43;75.23;96136.53;6100814;23;20016;-81
2023/09/13 07:19:08;;;;;;;6.00;4.32;;;;;;;31.02;81.48;96146.31;6125881;23;20027;-81
2023/09/13 07:21:33;;;;;;;8.27;4.30;;;;;;;30.75;84.01;96153.97;6101152;23;20008;-81
2023/09/13 07:23:59;;;;;;;6.32;4.40;;;;;;;30.87;81.89;96150.06;6126058;23;20009;-81
2023/09/13 07:26:24;;;;;;;6.70;4.28;;;;;;;30.90;83.98;96152.19;6124460;23;20009;-81
2023/09/13 07:28:50;;;;;;;7.80;4.05;;;;;;;31.47;80.24;96144.91;6100568;23;20504;-81
2023/09/13 07:31:16;;;;;;;6.55;4.40;;;;;;;31.26;82.44;96146.28;6100115;23;20176;-82
2023/09/13 07:33:41;;;;;;;6.10;4.15;;;;;;;31.55;80.52;96148.88;6125664;23;20016;-81
2023/09/13 07:36:07;;;;;;;7.15;3.78;;;;;;;31.51;74.37;96151.38;6099769;23;20001;-82
2023/09/13 07:38:33;;;;;;;6.78;3.50;;;;;;;31.32;78.79;96156.81;6124747;23;20012;-81
2023/09/13 07:40:59;;;;;;;5.43;3.47;;;;;;;30.40;84.48;96165.22;6124481;23;20085;-81
2023/09/13 07:43:25;;;;;;;5.38;3.42;;;;;;;31.94;73.19;96153.97;6125057;23;20010;-82
2023/09/13 07:45:51;;;;;;;6.88;4.18;;;;;;;31.41;75.81;96170.53;6100533;23;20381;-81
2023/09/13 07:48:16;;;;;;;7.95;4.40;;;;;;;31.35;78.96;96174.44;6125855;23;20013;-80
2023/09/13 07:50:42;;;;;;;4.55;3.00;;;;;;;31.88;75.05;96160.59;6124390;23;20005;-81
2023/09/13 07:53:08;;;;;;;5.50;3.67;;;;;;;31.89;73.81;96164.94;6124599;23;20006;-81
2023/09/13 07:55:34;;;;;;;4.65;3.30;;;;;;;32.73;67.87;96175.72;6125417;23;20005;-81
2023/09/13 07:58:00;;;;;;;5.90;3.63;;;;;;;32.15;68.55;96168.03;6100127;23;19998;-82
2023/09/13 08:00:26;;;;;;;7.07;3.65;;;;;;;32.95;67.06;96166.81;6125081;23;20497;-81
2023/09/13 08:02:52;;;;;;;4.90;3.30;;;;;;;32.67;65.86;96173.38;6125619;23;20119;-82
2023/09/13 08:05:18;;;;;;;4.53;3.22;;;;;;;32.95;63.45;96177.69;6125379;23;20012;-82
2023/09/13 08:07:47;;;;;;;5.00;3.22;;;;;;;33.88;59.35;96163.69;6124971;23;20006;-82
2023/09/13 08:10:16;;;;;;;6.80;3.65;;;;;;;33.59;61.05;96163.28;6125455;23;20037;-81
2023/09/13 08:12:42;;;;;;;5.03;3.33;;;;;;;34.26;55.61;96161.38;6151300;23;20009;-82
2023/09/13 08:15:08;;;;;;;6.85;3.40;;;;;;;33.35;62.57;96167.06;6124507;23;20036;-81
2023/09/13 08:17:43;;;;;;;6.22;3.22;;;;;;;33.39;59.93;96176.25;6100468;23;20060;-82
2023/09/13 08:20:08;;;;;;;4.65;3.05;;;;;;;33.40;58.31;96171.59;6125571;23;20088;-82
2023/09/13 08:22:37;;;;;;;6.25;3.30;;;;;;;32.86;64.72;96184.97;6100357;23;20562;-82
2023/09/13 08:25:04;;;;;;;4.72;3.15;;;;;;;33.53;61.55;96178.94;6125566;23;20431;-82
2023/09/13 08:27:30;;;;;;;5.82;3.53;;;;;;;33.79;58.28;96192.81;6100299;23;20461;-81
2023/09/13 08:29:55;;;;;;;5.15;3.72;;;;;;;33.26;62.71;96191.50;6100686;23;20009;-82
2023/09/13 08:32:22;;;;;;;7.60;4.10;;;;;;;32.87;61.97;96194.78;6100083;23;20009;-82
2023/09/13 08:34:47;;;;;;;6.00;3.70;;;;;;;32.86;61.01;96202.13;6125394;23;20014;-81
2023/09/13 08:37:13;;;;;;;6.97;3.25;;;;;;;32.84;65.17;96209.00;6100073;23;20009;-82
2023/09/13 08:39:47;;;;;;;4.47;3.10;;;;;;;31.76;71.17;96212.72;6125229;23;20072;-82
2023/09/13 08:42:14;;;;;;;5.47;3.70;;;;;;;32.24;65.53;96212.50;6100578;23;20009;-82
2023/09/13 08:44:43;;;;;;;5.78;3.65;;;;;;;32.00;71.20;96220.00;6125009;23;20068;-82
2023/09/13 08:47:11;;;;;;;6.00;3.55;;;;;;;32.05;67.09;96231.56;6149661;23;20329;-82
2023/09/13 08:49:38;;;;;;;6.07;4.15;;;;;;;32.11;69.01;96227.69;6149562;23;20060;-81
2023/09/13 08:52:05;;;;;;;5.28;3.85;;;;;;;32.56;69.13;96219.88;6100063;23;20033;-81
2023/09/13 08:54:32;;;;;;;5.43;3.90;;;;;;;32.29;67.16;96222.47;6124995;23;20401;-81
2023/09/13 08:56:59;;;;;;;5.65;3.45;;;;;;;33.04;61.32;96222.22;6124826;23;20434;-82
2023/09/13 08:59:25;;;;;;;4.82;3.55;;;;;;;32.96;59.89;96231.09;6100620;23;20056;-82
2023/09/13 09:01:55;;;;;;;5.15;3.60;;;;;;;32.76;63.88;96245.09;6124660;23;20009;-82
2023/09/13 09:04:21;;;;;;;5.85;4.57;;;;;;;33.02;62.07;96246.22;6099667;23;20770;-82
2023/09/13 09:06:47;;;;;;;6.40;4.55;;;;;;;32.04;65.37;96254.44;6100172;23;20010;-81
2023/09/13 09:09:18;;;;;;;7.47;4.57;;;;;;;32.41;64.71;96244.59;6099039;23;20001;-81
2023/09/13 09:11:47;;;;;;;6.00;4.90;;;;;;;32.43;66.62;96245.16;6150934;23;20005;-81
2023/09/13 09:14:15;;;;;;;6.95;5.35;;;;;;;32.52;64.41;96247.97;6124015;23;20002;-82
2023/09/13 09:16:42;;;;;;;6.82;5.10;;;;;;;33.02;61.67;96248.16;6124626;23;20092;-81
2023/09/13 09:19:08;;;;;;;6.05;5.05;;;;;;;32.41;66.82;96247.31;6125690;23;20001;-81
2023/09/13 09:21:37;;;;;;;6.25;4.53;;;;;;;33.02;60.53;96246.22;6124400;23;20012;-83
2023/09/13 09:24:03;;;;;;;6.13;4.60;;;;;;;33.45;59.19;96250.56;6099854;23;19998;-81
2023/09/13 09:26:29;;;;;;;6.50;4.53;;;;;;;33.07;59.00;96248.06;6124363;23;20013;-82
2023/09/13 09:28:54;;;;;;;9.75;5.40;;;;;;;33.16;58.14;96245.44;6124563;23;20014;-82
2023/09/13 09:31:25;;;;;;;7.03;5.20;;;;;;;33.89;55.63;96252.59;6123688;23;20002;-82
2023/09/13 09:34:02;;;;;;;5.55;4.43;;;;;;;33.21;58.67;96256.22;6100228;23;20006;-82
2023/09/13 09:36:34;;;;;;;6.90;5.40;;;;;;;33.29;60.60;96250.88;6124590;23;20341;-82
2023/09/13 09:39:04;;;;;;;6.35;5.25;;;;;;;32.99;59.74;96255.00;6100241;23;20084;-82
2023/09/13 09:41:37;;;;;;;6.55;4.88;;;;;;;33.73;55.55;96259.50;6149300;23;20016;-82
2023/09/13 09:44:03;;;;;;;6.30;4.20;;;;;;;34.15;54.42;96252.03;6123652;23;20053;-82
2023/09/13 09:46:30;;;;;;;6.43;4.90;;;;;;;34.01;56.62;96254.81;6123487;23;20067;-82
2023/09/13 09:48:56;;;;;;;6.68;5.07;;;;;;;33.77;55.70;96261.31;6125021;23;20096;-81
2023/09/13 09:51:22;;;;;;;7.13;5.38;;;;;;;34.13;54.83;96262.44;6125469;23;20112;-82
2023/09/13 09:53:48;;;;;;;6.78;5.00;;;;;;;34.83;50.25;96255.50;6125115;23;19997;-82
2023/09/13 09:56:17;;;;;;;6.40;4.22;;;;;;;34.01;52.94;96260.25;6124155;23;20049;-83
2023/09/13 09:58:46;;;;;;;7.80;4.63;;;;;;;32.86;60.14;96261.22;6099958;23;20040;-82
2023/09/13 10:01:12;;;;;;;5.35;4.10;;;;;;;33.47;57.41;96268.22;6124352;23;20005;-82
2023/09/13 10:03:38;;;;;;;6.50;3.83;;;;;;;34.17;53.99;96258.78;6124667;23;20013;-82
2023/09/13 10:06:10;;;;;;;5.38;4.05;;;;;;;34.44;53.01;96257.84;6124613;23;20009;-82
2023/09/13 10:08:37;;;;;;;7.18;4.57;;;;;;;34.57;53.69;96249.88;6124785;23;20005;-81
2023/09/13 10:11:03;;;;;;;7.28;5.00;;;;;;;34.32;51.01;96259.53;6100672;23;20016;-81
2023/09/13 10:13:32;;;;;;;5.45;3.85;;;;;;;33.29;55.79;96252.78;6099961;23;20005;-83
2023/09/13 10:15:59;;;;;;;5.65;3.58;;;;;;;34.86;51.68;96263.06;6124154;23;20013;-82
2023/09/13 10:18:26;;;;;;;6.00;4.60;;;;;;;35.13;50.75;96259.34;6124377;23;20084;-82
2023/09/13 10:20:57;;;;;;;6.57;4.50;;;;;;;35.18;47.89;96248.28;6151564;23;20001;-82
2023/09/13 10:23:36;;;;;;;6.75;4.68;;;;;;;34.78;50.40;96250.97;6099868;23;19998;-83
2023/09/13 10:26:06;;;;;;;6.90;3.97;;;;;;;34.46;50.91;96258.31;6106869;23;20009;-82
2023/09/13 10:28:35;;;;;;;5.75;4.47;;;;;;;33.73;53.68;96264.94;6138519;23;20002;-83
2023/09/13 10:31:05;;;;;;;6.43;3.90;;;;;;;33.94;52.72;96259.84;6139557;23;20001;-83
2023/09/13 10:33:53;;;;;;;6.82;4.70;;;;;;;33.46;53.88;96269.31;6129629;23;19998;-82
2023/09/13 10:36:31;;;;;;;7.63;3.53;;;;;;;34.68;52.88;96257.53;6099541;23;20016;-81
2023/09/13 10:39:09;;;;;;;5.60;3.88;;;;;;;34.09;55.19;96256.78;6099475;23;20013;-82
2023/09/13 10:41:42;;;;;;;5.03;3.67;;;;;;;34.13;52.98;96251.50;6124332;23;20001;-82
2023/09/13 10:44:09;;;;;;;4.75;3.60;;;;;;;34.05;53.76;96260.44;6100078;23;20010;-81
2023/09/13 10:46:35;;;;;;;4.68;3.50;;;;;;;34.71;50.86;96253.34;6123144;23;20033;-81
2023/09/13 10:49:03;;;;;;;5.60;3.83;;;;;;;34.29;52.75;96254.69;6123857;23;20474;-81
2023/09/13 10:51:30;;;;;;;5.22;3.65;;;;;;;34.33;54.51;96250.19;6099348;23;20060;-82
2023/09/13 10:54:00;;;;;;;5.93;4.20;;;;;;;34.47;54.15;96254.47;6099291;23;20001;-82
2023/09/13 10:56:27;;;;;;;5.18;3.72;;;;;;;34.68;52.02;96257.53;6099128;23;20010;-82
2023/09/13 10:58:53;;;;;;;8.23;4.60;;;;;;;34.63;52.54;96249.44;6124031;23;20140;-82
2023/09/13 11:01:20;;;;;;;5.28;3.40;;;;;;;34.41;54.12;96252.19;6124102;23;20049;-82
2023/09/13 11:03:45;;;;;;;5.68;3.30;;;;;;;34.76;54.62;96258.66;6099643;23;20009;-82
2023/09/13 11:06:11;;;;;;;4.55;3.42;;;;;;;34.42;59.36;96253.81;6099420;23;20443;-82
2023/09/13 11:08:37;;;;;;;7.22;3.65;;;;;;;34.02;58.40;96254.47;6124023;23;20446;-82
2023/09/13 11:11:19;;;;;;;8.57;4.30;;;;;;;34.18;58.84;96259.59;6126534;23;20001;-83
2023/09/13 11:13:45;;;;;;;5.82;3.88;;;;;;;33.72;59.04;96260.63;6124191;23;20013;-82
2023/09/13 11:16:16;;;;;;;5.10;3.83;;;;;;;34.33;57.37;96261.94;6123891;23;20009;-83
2023/09/13 11:18:51;;;;;;;5.07;3.60;;;;;;;33.65;60.60;96252.84;6124474;23;20419;-83
2023/09/13 11:21:18;;;;;;;5.78;3.53;;;;;;;33.29;61.03;96255.50;6101589;23;20036;-82
2023/09/13 11:23:49;;;;;;;5.57;3.78;;;;;;;34.25;58.33;96251.75;6101615;23;20410;-82
2023/09/13 11:26:15;;;;;;;4.60;3.10;;;;;;;33.67;59.90;96260.72;6126144;23;20033;-82
2023/09/13 11:28:46;;;;;;;6.25;3.45;;;;;;;33.43;61.65;96260.94;6125684;23;20006;-82